Time;durP1;ratioP1;P1;durP2;ratioP2;P2;SDS_P1;SDS_P2;PMS_P1;PMS_P2;Temp;Humidity;BMP_temperature;BMP_pressure;BME280_temperature;BME280_humidity;BME280_pressure;Samples;Min_cycle;Max_cycle;Signal;HPM_P1;HPM_P2
2022/09/01 00:00:01;;;;;;;1.42;0.85;;;;;;;13.74;90.93;101322.03;6207308;28;20499;-89
2022/09/01 00:03:05;;;;;;;1.75;0.88;;;;;;;13.69;91.71;101318.13;6208599;28;20061;-89
2022/09/01 00:06:09;;;;;;;2.17;0.90;;;;;;;13.65;92.83;101316.72;6208776;28;20506;-89
2022/09/01 00:09:15;;;;;;;2.03;0.70;;;;;;;13.58;93.17;101319.78;6206080;28;20535;-89
2022/09/01 00:12:17;;;;;;;1.58;0.82;;;;;;;13.57;93.03;101325.13;6211716;28;20438;-88
2022/09/01 00:15:19;;;;;;;1.20;0.70;;;;;;;13.54;93.40;101326.22;6206918;28;20045;-89
2022/09/01 00:18:21;;;;;;;1.85;0.70;;;;;;;13.51;93.31;101323.81;6221568;28;20042;-89
2022/09/01 00:21:29;;;;;;;0.90;0.80;;;;;;;13.45;93.49;101316.50;6231394;28;20045;-89
2022/09/01 00:24:31;;;;;;;0.85;0.70;;;;;;;13.40;93.29;101328.22;6225648;28;20396;-89
2022/09/01 00:27:33;;;;;;;0.75;0.70;;;;;;;13.32;93.58;101328.84;6219808;28;20099;-89
2022/09/01 00:30:35;;;;;;;1.48;0.80;;;;;;;13.26;93.15;101324.06;6208917;28;20049;-89
2022/09/01 00:33:37;;;;;;;2.50;0.85;;;;;;;13.20;93.29;101321.94;6208706;28;20372;-89
2022/09/01 00:36:40;;;;;;;0.73;0.73;;;;;;;13.15;93.67;101325.72;6210576;28;20156;-89
2022/09/01 00:39:42;;;;;;;1.02;0.93;;;;;;;13.08;93.82;101321.94;6194347;28;20042;-90
2022/09/01 00:42:47;;;;;;;1.45;0.77;;;;;;;13.04;94.21;101323.13;6212221;28;20080;-89
2022/09/01 00:45:50;;;;;;;2.10;0.95;;;;;;;12.99;95.10;101330.44;6228071;28;20140;-89
2022/09/01 00:49:08;;;;;;;2.13;0.98;;;;;;;12.97;94.57;101331.50;6198865;28;20550;-89
2022/09/01 00:52:19;;;;;;;4.13;0.98;;;;;;;12.92;94.74;101321.47;6203440;28;20360;-89
2022/09/01 00:55:28;;;;;;;2.25;1.00;;;;;;;12.85;94.74;101318.50;6209106;28;20424;-89
2022/09/01 00:58:31;;;;;;;1.55;1.00;;;;;;;12.76;95.17;101310.56;6220544;28;20034;-89
2022/09/01 01:01:35;;;;;;;2.15;1.00;;;;;;;12.75;95.46;101319.31;6217917;28;20121;-89
2022/09/01 01:04:37;;;;;;;1.52;0.80;;;;;;;12.71;97.49;101316.94;6215948;28;20119;-89
2022/09/01 01:07:43;;;;;;;1.08;0.90;;;;;;;12.73;98.99;101316.00;6206884;28;20078;-90
2022/09/01 01:10:48;;;;;;;2.13;0.90;;;;;;;12.70;97.93;101311.88;6199535;28;20034;-89
2022/09/01 01:14:11;;;;;;;2.40;1.10;;;;;;;12.67;98.28;101312.94;6195226;28;20516;-89
2022/09/01 01:17:12;;;;;;;1.83;1.00;;;;;;;12.67;97.71;101315.53;6198483;28;20042;-89
2022/09/01 01:23:47;;;;;;;1.33;1.00;;;;;;;12.61;96.75;101315.16;6201705;28;20091;-89
2022/09/01 01:26:50;;;;;;;1.33;0.98;;;;;;;12.62;97.58;101314.19;6192963;28;20036;-89
2022/09/01 01:29:52;;;;;;;2.03;0.85;;;;;;;12.60;98.45;101309.13;6198873;28;20043;-89
2022/09/01 01:32:57;;;;;;;1.33;0.85;;;;;;;12.59;98.62;101312.66;6212696;28;20637;-89
2022/09/01 01:36:00;;;;;;;1.38;0.90;;;;;;;12.59;99.12;101314.44;6209018;28;20496;-89
2022/09/01 01:39:10;;;;;;;2.17;1.08;;;;;;;12.58;98.43;101315.38;6208539;28;20874;-89
2022/09/01 01:42:12;;;;;;;1.85;0.95;;;;;;;12.56;99.11;101312.88;6203402;28;20034;-89
2022/09/01 01:45:16;;;;;;;1.63;0.90;;;;;;;12.53;99.84;101315.72;6214580;28;20043;-89
2022/09/01 01:48:24;;;;;;;1.23;1.13;;;;;;;12.50;99.44;101313.38;6203439;28;20046;-89
2022/09/01 01:51:27;;;;;;;1.73;0.90;;;;;;;12.49;99.23;101314.28;6221726;28;20108;-89
2022/09/01 01:54:31;;;;;;;1.95;0.90;;;;;;;12.44;99.78;101317.22;6211772;28;20053;-90
2022/09/01 01:57:34;;;;;;;1.15;1.00;;;;;;;12.44;100.00;101322.41;6225493;28;20057;-89
2022/09/01 02:00:37;;;;;;;1.20;1.08;;;;;;;12.46;100.00;101319.72;6240679;28;20080;-89
2022/09/01 02:03:39;;;;;;;2.42;0.93;;;;;;;12.45;100.00;101313.69;6220854;28;20056;-89
2022/09/01 02:06:44;;;;;;;5.53;1.00;;;;;;;12.43;100.00;101322.53;6210496;28;20054;-89
2022/09/01 02:09:47;;;;;;;2.00;0.95;;;;;;;12.43;100.00;101320.78;6204855;28;20050;-90
2022/09/01 02:12:49;;;;;;;2.97;1.00;;;;;;;12.39;100.00;101328.91;6208390;28;20041;-89
2022/09/01 02:15:53;;;;;;;2.58;1.13;;;;;;;12.34;100.00;101320.63;6205486;28;20038;-89
2022/09/01 02:18:55;;;;;;;1.42;1.00;;;;;;;12.29;100.00;101321.78;6208937;28;20339;-90
2022/09/01 02:21:59;;;;;;;1.50;1.10;;;;;;;12.22;100.00;101318.00;6214267;28;20039;-89
2022/09/01 02:25:00;;;;;;;2.63;1.15;;;;;;;12.16;100.00;101317.63;6210849;28;20189;-89
2022/09/01 02:28:04;;;;;;;2.15;1.00;;;;;;;12.08;100.00;101315.56;6208721;28;20124;-90
2022/09/01 02:31:07;;;;;;;4.35;1.25;;;;;;;12.00;100.00;101321.31;6211973;28;20042;-90
2022/09/01 02:34:12;;;;;;;2.13;1.05;;;;;;;11.93;100.00;101321.88;6209845;28;21324;-90
2022/09/01 02:37:14;;;;;;;1.48;1.30;;;;;;;11.89;100.00;101320.44;6205218;28;20034;-90
2022/09/01 02:40:16;;;;;;;1.20;1.10;;;;;;;11.83;100.00;101321.69;6216981;28;20049;-89
2022/09/01 02:43:19;;;;;;;1.90;0.95;;;;;;;11.77;100.00;101315.13;6193925;28;20385;-89
2022/09/01 02:46:22;;;;;;;1.67;1.08;;;;;;;11.71;100.00;101309.59;6215577;28;20115;-90
2022/09/01 02:49:27;;;;;;;4.65;1.20;;;;;;;11.64;100.00;101304.00;6220994;28;20062;-90
2022/09/01 02:52:34;;;;;;;3.28;1.10;;;;;;;11.60;100.00;101300.81;6212487;28;20578;-90
2022/09/01 02:55:38;;;;;;;1.98;1.30;;;;;;;11.55;100.00;101296.84;6205960;28;20522;-90
2022/09/01 02:58:45;;;;;;;1.30;1.10;;;;;;;11.50;100.00;101297.22;6215961;28;20057;-89
2022/09/01 03:01:49;;;;;;;1.15;1.00;;;;;;;11.47;100.00;101297.41;6204558;28;20160;-89
2022/09/01 03:04:53;;;;;;;3.10;1.40;;;;;;;11.45;100.00;101295.84;6201811;28;20050;-90
2022/09/01 03:07:58;;;;;;;3.72;1.10;;;;;;;11.42;100.00;101295.13;6213086;28;20479;-89
2022/09/01 03:11:01;;;;;;;3.17;1.08;;;;;;;11.41;100.00;101298.66;6195138;28;20038;-89
2022/09/01 03:14:05;;;;;;;2.15;1.20;;;;;;;11.40;100.00;101294.44;6204652;28;20172;-89
2022/09/01 03:17:06;;;;;;;1.30;1.10;;;;;;;11.38;100.00;101298.06;6211672;28;20054;-90
2022/09/01 03:20:09;;;;;;;2.33;1.15;;;;;;;11.36;100.00;101289.56;6207185;28;20463;-89
2022/09/01 03:23:14;;;;;;;4.20;1.15;;;;;;;11.34;100.00;101300.03;6211148;28;20042;-89
2022/09/01 03:26:21;;;;;;;1.40;1.30;;;;;;;11.30;100.00;101300.34;6205272;28;20515;-89
2022/09/01 03:29:23;;;;;;;2.33;1.02;;;;;;;11.27;100.00;101297.97;6205097;28;20039;-89
2022/09/01 03:32:25;;;;;;;1.10;1.00;;;;;;;11.23;100.00;101291.34;6226197;28;20042;-89
2022/09/01 03:35:30;;;;;;;1.40;1.13;;;;;;;11.19;100.00;101294.16;6205847;28;20038;-90
2022/09/01 03:38:33;;;;;;;2.45;1.20;;;;;;;11.18;100.00;101297.69;6212639;28;20526;-89
2022/09/01 03:41:37;;;;;;;1.70;1.40;;;;;;;11.13;100.00;101293.72;6212171;28;20129;-89
2022/09/01 03:44:43;;;;;;;1.80;1.30;;;;;;;11.12;100.00;101297.25;6207018;28;20064;-89
2022/09/01 03:47:48;;;;;;;1.55;1.20;;;;;;;11.15;100.00;101297.03;6209615;28;20050;-90
2022/09/01 03:50:50;;;;;;;1.67;1.27;;;;;;;11.13;100.00;101286.81;6220075;28;20557;-89
2022/09/01 03:53:53;;;;;;;1.30;1.20;;;;;;;11.14;100.00;101293.63;6200176;28;20538;-90
2022/09/01 03:56:58;;;;;;;3.10;1.48;;;;;;;11.17;100.00;101292.59;6211380;28;20061;-89
2022/09/01 04:00:00;;;;;;;1.42;1.20;;;;;;;11.17;100.00;101297.78;6210728;28;20052;-89
2022/09/01 04:03:06;;;;;;;1.90;1.50;;;;;;;11.18;100.00;101292.50;6207335;28;20053;-89
2022/09/01 04:06:09;;;;;;;2.78;1.20;;;;;;;11.18;100.00;101291.69;6208009;28;20058;-90
2022/09/01 04:09:12;;;;;;;1.55;1.45;;;;;;;11.19;100.00;101298.50;6206454;28;20552;-89
2022/09/01 04:12:16;;;;;;;2.97;1.25;;;;;;;11.18;100.00;101294.28;6215658;28;20053;-90
2022/09/01 04:15:27;;;;;;;1.92;1.10;;;;;;;11.12;100.00;101292.09;6209835;28;20054;-89
2022/09/01 04:18:29;;;;;;;1.30;1.20;;;;;;;11.09;100.00;101292.31;6200370;28;20042;-90
2022/09/01 04:21:32;;;;;;;2.67;1.10;;;;;;;11.06;100.00;101293.34;6201672;28;20052;-90
2022/09/01 04:24:34;;;;;;;1.48;1.00;;;;;;;11.02;100.00;101293.66;6216111;28;20587;-89
2022/09/01 04:27:39;;;;;;;3.03;1.58;;;;;;;10.99;100.00;101297.28;6209555;28;20049;-90
2022/09/01 04:30:42;;;;;;;1.40;1.20;;;;;;;10.98;100.00;101296.47;6210571;28;20052;-90
2022/09/01 04:33:57;;;;;;;3.42;1.35;;;;;;;10.99;100.00;101295.50;6204229;28;20038;-90
2022/09/01 04:36:58;;;;;;;3.45;1.33;;;;;;;11.01;100.00;101294.59;6207024;28;20069;-90
2022/09/01 04:40:01;;;;;;;1.40;1.10;;;;;;;11.01;100.00;101300.59;6205535;28;20046;-89
2022/09/01 04:43:06;;;;;;;1.95;1.25;;;;;;;10.97;100.00;101296.56;6209478;28;20034;-89
2022/09/01 04:46:09;;;;;;;2.25;1.40;;;;;;;10.89;100.00;101296.25;6205238;28;20046;-90
2022/09/01 04:49:18;;;;;;;3.10;1.58;;;;;;;10.85;100.00;101300.78;6206379;28;20050;-90
2022/09/01 04:52:21;;;;;;;2.15;1.50;;;;;;;10.75;100.00;101300.59;6209409;28;20049;-90
2022/09/01 04:55:23;;;;;;;5.70;1.60;;;;;;;10.76;100.00;101304.03;6203170;28;20136;-90
2022/09/01 04:58:27;;;;;;;2.22;1.42;;;;;;;10.80;100.00;101308.06;6211219;28;20611;-90
2022/09/01 05:01:30;;;;;;;2.25;1.58;;;;;;;10.80;100.00;101305.47;6214866;28;20045;-90
2022/09/01 05:04:32;;;;;;;2.60;1.48;;;;;;;10.79;100.00;101306.41;6209605;28;20455;-90
2022/09/01 05:07:36;;;;;;;2.25;1.40;;;;;;;10.83;100.00;101307.88;6208084;28;20522;-90
2022/09/01 05:10:41;;;;;;;3.08;1.40;;;;;;;10.85;100.00;101300.78;6208706;28;20034;-90
2022/09/01 05:13:56;;;;;;;2.60;1.40;;;;;;;10.88;100.00;101305.78;6217575;28;20046;-90
2022/09/01 05:17:00;;;;;;;1.58;1.48;;;;;;;10.92;100.00;101303.81;6219798;28;20507;-90
2022/09/01 05:20:03;;;;;;;3.03;1.48;;;;;;;10.98;100.00;101304.22;6196529;28;20050;-90
2022/09/01 05:23:05;;;;;;;2.22;1.67;;;;;;;11.02;100.00;101304.84;6201831;28;20551;-89
2022/09/01 05:26:26;;;;;;;2.60;1.30;;;;;;;11.07;100.00;101302.75;6227350;28;20056;-89
2022/09/01 05:29:28;;;;;;;5.45;1.92;;;;;;;11.10;100.00;101305.13;6219598;28;20611;-90
2022/09/01 05:32:32;;;;;;;3.97;1.80;;;;;;;11.16;100.00;101311.69;6207360;28;20524;-89
2022/09/01 05:35:36;;;;;;;3.13;1.80;;;;;;;11.24;100.00;101314.56;6207747;28;20045;-90
2022/09/01 05:38:44;;;;;;;2.30;1.60;;;;;;;11.30;100.00;101314.13;6206409;28;20499;-89
2022/09/01 05:41:48;;;;;;;3.10;1.65;;;;;;;11.37;100.00;101317.13;6206357;28;20046;-90
2022/09/01 05:44:51;;;;;;;3.53;1.60;;;;;;;11.41;100.00;101319.41;6222632;28;20057;-90
2022/09/01 05:47:53;;;;;;;1.60;1.50;;;;;;;11.48;100.00;101324.16;6208253;28;20041;-90
2022/09/01 05:50:58;;;;;;;3.28;2.00;;;;;;;11.54;100.00;101318.53;6199900;28;20041;-90
2022/09/01 05:54:00;;;;;;;3.38;1.92;;;;;;;11.61;100.00;101322.38;6215020;28;20184;-90
2022/09/01 05:57:06;;;;;;;2.55;1.63;;;;;;;11.68;100.00;101326.19;6223656;28;20459;-90
2022/09/01 06:00:33;;;;;;;2.25;1.70;;;;;;;11.75;100.00;101327.41;6213989;28;20372;-90
2022/09/01 06:03:35;;;;;;;2.05;1.73;;;;;;;11.81;100.00;101313.16;6216214;28;20273;-90
2022/09/01 06:06:45;;;;;;;2.08;1.80;;;;;;;11.88;100.00;101319.63;6212175;28;20061;-89
2022/09/01 06:10:07;;;;;;;1.63;1.50;;;;;;;11.95;100.00;101313.03;6232050;28;20518;-90
2022/09/01 06:13:09;;;;;;;3.30;1.70;;;;;;;12.03;100.00;101325.47;6208899;28;20053;-90
2022/09/01 06:16:13;;;;;;;7.15;1.80;;;;;;;12.07;100.00;101324.28;6191102;28;20121;-90
2022/09/01 06:19:15;;;;;;;3.30;1.65;;;;;;;12.13;100.00;101318.66;6203759;28;20591;-90
2022/09/01 06:22:22;;;;;;;4.30;2.47;;;;;;;12.20;100.00;101319.06;6202698;28;20054;-90
2022/09/01 06:25:29;;;;;;;2.90;1.88;;;;;;;12.25;100.00;101322.13;6204627;28;20651;-90
2022/09/01 06:28:32;;;;;;;3.03;1.80;;;;;;;12.32;100.00;101319.91;6201161;28;20065;-90
2022/09/01 06:31:38;;;;;;;2.92;2.00;;;;;;;12.39;100.00;101326.31;6216882;28;20069;-90
2022/09/01 06:34:43;;;;;;;3.08;2.03;;;;;;;12.46;100.00;101317.94;6208228;28;20042;-90
2022/09/01 06:37:47;;;;;;;3.05;1.77;;;;;;;12.53;100.00;101322.69;6219004;28;20487;-90
2022/09/01 06:41:09;;;;;;;3.05;2.00;;;;;;;12.60;100.00;101322.13;6193544;28;20057;-89
2022/09/01 06:44:11;;;;;;;4.22;1.90;;;;;;;12.68;100.00;101332.75;6204621;28;20424;-90
2022/09/01 06:47:23;;;;;;;;;;;;;;;12.76;100.00;101334.78;6217426;28;20129;-90
2022/09/01 06:50:26;;;;;;;5.15;1.80;;;;;;;12.84;100.00;101331.59;6203912;28;19925;-90
2022/09/01 06:53:55;;;;;;;2.63;1.52;;;;;;;12.92;100.00;101332.69;6200165;28;20589;-90
2022/09/01 06:57:02;;;;;;;5.37;2.20;;;;;;;13.01;100.00;101335.53;6183476;28;20050;-90
2022/09/01 07:00:27;;;;;;;8.02;1.85;;;;;;;13.12;100.00;101343.34;6199186;28;20392;-90
2022/09/01 07:03:30;;;;;;;2.25;1.52;;;;;;;13.21;100.00;101344.38;6200979;28;20445;-89
2022/09/01 07:06:40;;;;;;;1.70;1.60;;;;;;;13.27;100.00;101341.38;6203791;28;20180;-89
2022/09/01 07:10:26;;;;;;;4.28;2.00;;;;;;;13.35;100.00;101350.22;6195216;28;20062;-89
2022/09/01 07:13:38;;;;;;;4.15;1.50;;;;;;;13.43;100.00;101347.00;6189962;28;20054;-89
2022/09/01 07:17:00;;;;;;;1.90;1.42;;;;;;;13.52;100.00;101342.88;6199231;28;20091;-89
2022/09/01 07:20:25;;;;;;;2.42;1.70;;;;;;;13.60;100.00;101344.88;6204383;28;20315;-89
2022/09/01 07:23:28;;;;;;;1.98;1.50;;;;;;;13.72;100.00;101352.53;6210845;28;20061;-90
2022/09/01 07:26:49;;;;;;;7.13;1.83;;;;;;;13.79;100.00;101355.50;6192275;28;20050;-89
2022/09/01 07:29:56;;;;;;;4.15;1.50;;;;;;;13.87;100.00;101358.31;6205244;28;20046;-89
2022/09/01 07:32:58;;;;;;;4.00;1.52;;;;;;;13.93;100.00;101357.81;6224947;28;20471;-90
2022/09/01 07:36:20;;;;;;;1.75;1.10;;;;;;;14.04;100.00;101356.97;6203019;28;20046;-89
2022/09/01 07:39:27;;;;;;;1.90;1.20;;;;;;;14.15;100.00;101354.31;6217736;28;20053;-90
2022/09/01 07:43:00;;;;;;;3.20;1.52;;;;;;;14.25;100.00;101351.78;6197001;28;20054;-89
2022/09/01 07:46:24;;;;;;;2.55;1.30;;;;;;;14.32;100.00;101355.53;6206635;28;20062;-90
2022/09/01 07:49:49;;;;;;;2.22;1.38;;;;;;;14.42;100.00;101358.22;6210485;28;20046;-89
2022/09/01 07:53:11;;;;;;;1.60;1.20;;;;;;;14.53;100.00;101352.13;6207439;28;20054;-89
2022/09/01 07:56:17;;;;;;;1.40;1.10;;;;;;;14.59;100.00;101354.28;6205625;28;20132;-89
2022/09/01 07:59:22;;;;;;;1.17;1.08;;;;;;;14.66;100.00;101355.41;6201872;28;20069;-90
2022/09/01 08:02:32;;;;;;;1.92;1.38;;;;;;;14.74;99.01;101357.38;6211525;28;20046;-90
2022/09/01 08:05:34;;;;;;;1.10;1.00;;;;;;;14.80;97.83;101357.69;6206490;28;20278;-90
2022/09/01 08:08:38;;;;;;;1.38;0.93;;;;;;;14.86;97.02;101361.56;6200501;28;20046;-89
2022/09/01 08:11:42;;;;;;;4.75;1.33;;;;;;;14.97;96.11;101350.22;6202363;28;20042;-90
2022/09/01 08:15:08;;;;;;;2.15;1.10;;;;;;;15.11;94.53;101351.69;6214871;28;20407;-90
2022/09/01 08:18:30;;;;;;;4.10;1.08;;;;;;;15.19;94.31;101359.69;6206614;28;20060;-90
2022/09/01 08:21:58;;;;;;;1.85;0.82;;;;;;;15.35;92.24;101367.00;6192327;28;20653;-90
2022/09/01 08:25:08;;;;;;;3.08;1.02;;;;;;;15.48;90.54;101363.22;6213267;28;20038;-90
2022/09/01 08:28:13;;;;;;;2.17;1.13;;;;;;;15.60;90.22;101366.56;6205218;28;20479;-90
2022/09/01 08:31:20;;;;;;;0.90;0.90;;;;;;;15.71;89.20;101358.63;6201110;28;20041;-90
2022/09/01 08:34:22;;;;;;;5.40;1.58;;;;;;;15.76;88.74;101354.81;6213358;28;20077;-89
2022/09/01 08:37:24;;;;;;;3.67;1.10;;;;;;;15.82;88.29;101359.47;6211232;28;20132;-90
2022/09/01 08:40:26;;;;;;;1.35;1.10;;;;;;;15.95;86.69;101362.69;6219166;28;20093;-90
2022/09/01 08:44:14;;;;;;;3.25;0.80;;;;;;;16.04;85.58;101369.69;6202178;28;20033;-90
2022/09/01 08:47:18;;;;;;;2.47;0.82;;;;;;;16.20;83.27;101363.94;6195590;28;20554;-90
2022/09/01 08:50:36;;;;;;;1.58;0.70;;;;;;;16.30;82.64;101361.31;6186987;28;20115;-89
2022/09/01 08:54:05;;;;;;;4.20;0.75;;;;;;;16.47;80.14;101358.00;6201129;28;20599;-90
2022/09/01 08:57:15;;;;;;;2.60;1.10;;;;;;;16.64;78.82;101355.63;6198571;28;20049;-90
2022/09/01 09:00:46;;;;;;;1.35;0.90;;;;;;;16.71;78.83;101369.78;6198867;28;20562;-91
2022/09/01 09:04:40;;;;;;;2.70;0.90;;;;;;;16.83;78.16;101360.84;6186696;28;20126;-91
2022/09/01 09:07:58;;;;;;;1.40;0.80;;;;;;;16.98;76.60;101369.91;6156700;28;20067;-91
2022/09/01 09:11:35;;;;;;;3.17;0.70;;;;;;;17.15;74.90;101363.09;6157005;28;20043;-91
2022/09/01 09:15:14;;;;;;;2.43;0.70;;;;;;;17.23;73.95;101355.34;6158098;28;20519;-91
2022/09/01 09:18:36;;;;;;;0.60;0.60;;;;;;;17.31;73.07;101359.03;6142035;28;20408;-91
2022/09/01 09:21:42;;;;;;;1.40;0.70;;;;;;;17.46;71.80;101348.91;6155017;28;20336;-91
2022/09/01 09:24:54;;;;;;;2.33;0.80;;;;;;;17.61;70.77;101350.06;6110061;28;20478;-91
2022/09/01 09:27:58;;;;;;;2.47;0.85;;;;;;;17.65;70.74;101351.44;6099559;29;20048;-91
2022/09/01 09:31:24;;;;;;;3.70;0.70;;;;;;;17.73;70.28;101343.66;6100664;28;20460;-91
2022/09/01 09:34:26;;;;;;;2.17;0.88;;;;;;;17.88;69.73;101341.38;6098871;29;20321;-90
2022/09/01 09:37:30;;;;;;;1.52;0.60;;;;;;;18.04;67.61;101348.59;6110302;28;20099;-90
2022/09/01 09:40:32;;;;;;;2.22;0.75;;;;;;;18.20;66.01;101343.47;6122258;28;20096;-90
2022/09/01 09:43:59;;;;;;;2.00;0.70;;;;;;;18.35;64.43;101342.94;6177093;28;20066;-90
2022/09/01 09:47:01;;;;;;;1.08;0.52;;;;;;;18.43;63.33;101335.97;6190394;28;20504;-94
2022/09/01 09:50:28;;;;;;;2.13;0.50;;;;;;;18.49;61.98;101337.97;6192499;28;20050;-90
2022/09/01 09:53:34;;;;;;;1.85;0.47;;;;;;;18.58;61.72;101343.25;6195458;28;20042;-90
2022/09/01 09:56:36;;;;;;;1.02;0.40;;;;;;;18.66;60.73;101333.66;6194320;28;20157;-90
2022/09/01 10:00:03;;;;;;;1.27;0.65;;;;;;;18.81;59.88;101331.31;6193429;28;20049;-90
2022/09/01 10:03:13;;;;;;;1.13;0.60;;;;;;;18.83;60.17;101326.75;6194834;28;20121;-90
2022/09/01 10:06:37;;;;;;;0.90;0.68;;;;;;;18.89;60.14;101318.25;6196094;28;20490;-91
2022/09/01 10:09:38;;;;;;;0.88;0.60;;;;;;;19.00;59.48;101314.50;6198147;28;20038;-90
2022/09/01 10:12:41;;;;;;;0.80;0.70;;;;;;;19.11;58.37;101310.81;6194191;28;20408;-90
2022/09/01 10:15:47;;;;;;;0.75;0.50;;;;;;;19.17;56.83;101312.78;6198276;28;20073;-91
2022/09/01 10:18:52;;;;;;;1.38;0.47;;;;;;;19.27;56.63;101310.03;6198823;28;20080;-90
2022/09/01 10:21:53;;;;;;;2.15;0.50;;;;;;;19.37;55.98;101318.59;6200880;28;20046;-91
2022/09/01 10:24:56;;;;;;;3.35;0.70;;;;;;;19.51;54.94;101315.38;6201905;28;20042;-90
2022/09/01 10:28:16;;;;;;;5.20;0.70;;;;;;;19.72;53.37;101311.50;6193393;28;20049;-90
2022/09/01 10:31:22;;;;;;;0.68;0.68;;;;;;;19.83;52.78;101305.13;6218229;28;20442;-90
2022/09/01 10:34:36;;;;;;;1.08;0.60;;;;;;;19.94;52.58;101302.16;6200079;28;20034;-90
2022/09/01 10:37:41;;;;;;;2.15;0.70;;;;;;;20.06;50.72;101294.78;6202268;28;20644;-91
2022/09/01 10:41:05;;;;;;;1.98;0.68;;;;;;;20.25;50.17;101294.44;6200701;28;20049;-90
2022/09/01 10:44:16;;;;;;;0.70;0.60;;;;;;;20.36;49.36;101296.72;6201751;28;20042;-90
2022/09/01 10:47:32;;;;;;;1.50;0.50;;;;;;;20.45;49.11;101292.28;6203428;28;20752;-91
2022/09/01 10:50:34;;;;;;;0.82;0.50;;;;;;;20.59;49.13;101293.41;6221799;28;20308;-91
2022/09/01 10:53:51;;;;;;;0.75;0.47;;;;;;;20.78;47.78;101292.22;6205686;28;20069;-91
2022/09/01 10:56:55;;;;;;;1.08;0.50;;;;;;;20.96;47.58;101286.72;6202788;28;20038;-91
2022/09/01 11:00:22;;;;;;;2.20;0.50;;;;;;;21.16;46.20;101290.59;6213269;28;20643;-90
2022/09/01 11:03:55;;;;;;;3.03;0.70;;;;;;;21.22;46.85;101284.66;6205526;28;20034;-90
2022/09/01 11:07:05;;;;;;;5.13;0.75;;;;;;;21.32;46.85;101287.06;6206186;28;21059;-91
2022/09/01 11:10:32;;;;;;;4.18;0.80;;;;;;;21.49;44.52;101279.94;6197862;28;20500;-91
2022/09/01 11:13:45;;;;;;;1.80;0.57;;;;;;;21.67;44.21;101287.53;6207579;28;20046;-91
2022/09/01 11:17:18;;;;;;;0.43;0.40;;;;;;;21.85;44.39;101274.06;6204252;28;20049;-90
2022/09/01 11:20:25;;;;;;;3.25;0.57;;;;;;;22.02;43.82;101290.56;6213574;28;20492;-91
2022/09/01 11:23:30;;;;;;;0.98;0.57;;;;;;;22.21;42.84;101274.28;6206062;28;20111;-91
2022/09/01 11:26:31;;;;;;;1.55;0.60;;;;;;;22.32;43.14;101275.66;6212506;28;20136;-90
2022/09/01 11:30:01;;;;;;;1.70;0.50;;;;;;;22.45;42.54;101275.84;6206615;28;20185;-90
2022/09/01 11:33:35;;;;;;;0.75;0.50;;;;;;;22.47;42.12;101276.47;6210545;28;20471;-90
2022/09/01 11:36:44;;;;;;;0.60;0.38;;;;;;;22.57;41.54;101274.38;6216153;28;20052;-91
2022/09/01 11:40:01;;;;;;;0.50;0.47;;;;;;;22.74;42.14;101267.09;6202262;28;20755;-91
2022/09/01 11:43:09;;;;;;;0.63;0.40;;;;;;;22.90;41.91;101270.56;6221868;28;20069;-92
2022/09/01 11:46:26;;;;;;;3.13;0.43;;;;;;;23.03;41.46;101272.56;6211348;28;20034;-89
2022/09/01 11:49:37;;;;;;;0.60;0.50;;;;;;;23.14;41.34;101266.81;6219245;28;20037;-92
2022/09/01 11:52:40;;;;;;;2.28;0.65;;;;;;;23.30;40.28;101258.66;6213749;28;20037;-90
2022/09/01 11:55:52;;;;;;;0.70;0.50;;;;;;;23.44;40.01;101257.78;6212835;28;20803;-89
2022/09/01 11:58:54;;;;;;;1.52;0.40;;;;;;;23.71;39.03;101255.41;6201436;28;20420;-90
2022/09/01 12:01:57;;;;;;;2.13;0.57;;;;;;;23.94;40.02;101257.84;6219353;28;20045;-90
2022/09/01 12:05:02;;;;;;;0.60;0.60;;;;;;;24.14;40.75;101258.00;6206828;28;20092;-89
2022/09/01 12:08:17;;;;;;;2.35;0.47;;;;;;;24.49;38.90;101252.75;6203953;28;20038;-91
2022/09/01 12:11:30;;;;;;;2.03;0.40;;;;;;;24.92;38.70;101257.88;6212630;28;20058;-90
2022/09/01 12:14:32;;;;;;;0.95;0.55;;;;;;;25.15;37.72;101253.03;6212371;28;20068;-93
2022/09/01 12:18:08;;;;;;;2.05;0.60;;;;;;;25.04;37.17;101250.97;6204950;28;20037;-93
2022/09/01 12:21:19;;;;;;;0.60;0.50;;;;;;;25.06;37.02;101254.22;6214713;28;20038;-90
2022/09/01 12:24:23;;;;;;;0.52;0.50;;;;;;;25.05;37.28;101247.31;6201149;28;20399;-91
2022/09/01 12:27:25;;;;;;;1.50;0.40;;;;;;;24.86;38.42;101238.25;6204354;28;20069;-91
2022/09/01 12:30:27;;;;;;;6.22;0.73;;;;;;;25.16;37.91;101235.28;6202814;28;20325;-91
2022/09/01 12:33:31;;;;;;;2.00;0.52;;;;;;;25.53;37.87;101241.09;6221519;28;20504;-90
2022/09/01 12:36:35;;;;;;;3.08;0.70;;;;;;;25.85;36.84;101236.84;6212111;28;20486;-90
2022/09/01 12:39:46;;;;;;;1.00;0.55;;;;;;;25.99;36.39;101235.84;6203956;28;20042;-90
2022/09/01 12:42:50;;;;;;;0.52;0.32;;;;;;;26.18;36.34;101228.84;6210549;28;20033;-91
2022/09/01 12:45:52;;;;;;;0.88;0.45;;;;;;;26.45;34.95;101236.75;6201871;28;20495;-90
2022/09/01 12:49:33;;;;;;;0.77;0.45;;;;;;;26.85;35.22;101224.16;6214818;28;20522;-91
2022/09/01 12:52:44;;;;;;;1.15;0.65;;;;;;;27.23;33.56;101239.31;6208554;28;20073;-90
2022/09/01 12:56:15;;;;;;;3.33;0.57;;;;;;;27.65;32.61;101241.47;6201862;28;20030;-90
2022/09/01 12:59:25;;;;;;;2.40;0.52;;;;;;;28.05;33.22;101234.00;6223923;28;20779;-90
2022/09/01 13:02:40;;;;;;;1.63;0.50;;;;;;;28.20;31.21;101227.47;6199292;28;20049;-90
2022/09/01 13:05:53;;;;;;;2.75;0.30;;;;;;;27.98;32.12;101232.44;6200939;28;20555;-90
2022/09/01 13:08:56;;;;;;;1.83;0.60;;;;;;;28.33;34.26;101214.03;6212190;28;20038;-90
2022/09/01 13:12:18;;;;;;;1.52;0.60;;;;;;;28.59;33.72;101212.13;6198624;28;20043;-90
2022/09/01 13:15:20;;;;;;;1.67;0.60;;;;;;;28.99;32.36;101212.41;6200681;28;20050;-91
2022/09/01 13:18:24;;;;;;;1.20;0.60;;;;;;;28.56;32.90;101210.72;6218249;28;20045;-90
2022/09/01 13:21:27;;;;;;;1.30;0.52;;;;;;;27.66;34.52;101212.00;6197267;28;20042;-90
2022/09/01 13:24:29;;;;;;;3.80;0.55;;;;;;;26.80;35.91;101202.72;6196915;28;20045;-91
2022/09/01 13:27:32;;;;;;;1.52;0.70;;;;;;;26.66;36.31;101192.38;6209453;28;20057;-91
2022/09/01 13:30:34;;;;;;;2.08;0.90;;;;;;;27.43;35.41;101186.00;6199508;28;20049;-90
2022/09/01 13:33:36;;;;;;;0.60;0.50;;;;;;;28.09;33.76;101195.25;6191487;28;20045;-90
2022/09/01 13:36:59;;;;;;;2.00;0.50;;;;;;;28.47;33.73;101198.72;6205327;28;20510;-90
2022/09/01 13:40:03;;;;;;;1.98;0.40;;;;;;;28.72;33.57;101194.13;6200382;28;20041;-90
2022/09/01 13:43:06;;;;;;;3.70;0.60;;;;;;;28.93;33.04;101194.66;6209884;28;20111;-90
2022/09/01 13:46:08;;;;;;;0.90;0.40;;;;;;;28.66;32.92;101188.88;6211317;28;20412;-90
2022/09/01 13:49:10;;;;;;;0.93;0.60;;;;;;;28.16;32.83;101186.38;6202680;28;20035;-92
2022/09/01 13:52:33;;;;;;;0.52;0.52;;;;;;;27.36;34.61;101181.78;6201955;28;20054;-91
2022/09/01 13:55:41;;;;;;;0.50;0.50;;;;;;;26.81;34.82;101179.66;6195912;28;20049;-90
2022/09/01 13:58:43;;;;;;;1.90;0.55;;;;;;;26.43;36.38;101180.38;6214616;28;20042;-91
2022/09/01 14:01:48;;;;;;;0.90;0.50;;;;;;;26.53;36.85;101177.31;6205854;28;20490;-92
2022/09/01 14:04:51;;;;;;;0.88;0.57;;;;;;;26.51;36.05;101174.03;6216386;28;20042;-90
2022/09/01 14:07:53;;;;;;;0.90;0.65;;;;;;;26.37;36.00;101173.28;6199236;28;20220;-91
2022/09/01 14:10:55;;;;;;;2.50;0.60;;;;;;;26.98;36.63;101170.16;6208549;28;20042;-91
2022/09/01 14:13:57;;;;;;;0.73;0.50;;;;;;;27.49;35.06;101166.50;6201128;28;20524;-90
2022/09/01 14:17:00;;;;;;;0.65;0.45;;;;;;;27.05;34.40;101159.47;6216155;28;20053;-90
2022/09/01 14:20:05;;;;;;;1.45;0.57;;;;;;;26.47;35.24;101156.91;6198698;28;20137;-90
2022/09/01 14:23:09;;;;;;;1.05;0.70;;;;;;;25.81;36.18;101160.50;6200097;28;20046;-91
2022/09/01 14:26:14;;;;;;;0.63;0.52;;;;;;;25.07;36.53;101155.19;6198231;28;20095;-90
2022/09/01 14:29:16;;;;;;;0.85;0.43;;;;;;;25.24;37.29;101154.81;6201806;28;20049;-90
2022/09/01 14:32:22;;;;;;;1.55;0.40;;;;;;;26.11;36.43;101147.63;6211181;28;20061;-90
2022/09/01 14:35:25;;;;;;;1.67;0.60;;;;;;;26.98;35.83;101150.72;6194021;28;20045;-90